Time;durP1;ratioP1;P1;durP2;ratioP2;P2;SDS_P1;SDS_P2;PMS_P1;PMS_P2;Temp;Humidity;BMP_temperature;BMP_pressure;BME280_temperature;BME280_humidity;BME280_pressure;Samples;Min_cycle;Max_cycle;Signal;HPM_P1;HPM_P2
2023/12/22 00:01:49;;;;;;;206.95;95.65;;;;;;;2.05;82.39;97616.31;5018576;28;20046;-86
2023/12/22 00:04:35;;;;;;;202.45;97.10;;;;;;;2.07;81.49;97623.97;5009746;28;20045;-83
2023/12/22 00:07:21;;;;;;;222.52;106.00;;;;;;;2.07;81.24;97622.16;5023973;28;20064;-82
2023/12/22 00:10:07;;;;;;;227.98;106.13;;;;;;;2.08;81.69;97610.63;5017549;28;20034;-81
2023/12/22 00:12:52;;;;;;;256.70;118.32;;;;;;;2.03;82.29;97615.72;5018156;28;20038;-84
2023/12/22 00:15:37;;;;;;;229.07;110.72;;;;;;;2.05;82.16;97626.00;5018670;28;20034;-84
2023/12/22 00:18:26;;;;;;;241.13;115.82;;;;;;;2.07;82.35;97622.16;5018027;28;20053;-81
2023/12/22 00:21:11;;;;;;;244.23;112.97;;;;;;;2.08;82.38;97605.41;5016993;28;20049;-80
2023/12/22 00:23:57;;;;;;;235.68;114.50;;;;;;;2.10;82.92;97613.06;5017129;28;20395;-83
2023/12/22 00:26:43;;;;;;;221.40;104.63;;;;;;;2.11;81.84;97612.03;5016939;28;20053;-84
2023/12/22 00:29:28;;;;;;;190.88;90.55;;;;;;;2.15;81.53;97607.16;5018113;28;20038;-81
2023/12/22 00:32:14;;;;;;;187.77;86.47;;;;;;;2.18;82.09;97615.38;5008753;28;20042;-80
2023/12/22 00:35:02;;;;;;;135.05;61.20;;;;;;;2.24;81.15;97635.50;4995153;28;20507;-84
2023/12/22 00:37:47;;;;;;;140.07;65.90;;;;;;;2.31;81.03;97638.84;5016857;28;20480;-80
2023/12/22 00:40:33;;;;;;;153.35;70.35;;;;;;;2.33;80.49;97632.63;5016595;28;20052;-81
2023/12/22 00:43:18;;;;;;;177.85;86.53;;;;;;;2.33;81.18;97636.03;5002431;28;20049;-83
2023/12/22 00:46:04;;;;;;;177.75;82.10;;;;;;;2.34;81.47;97634.22;5020221;28;20120;-84
2023/12/22 00:48:49;;;;;;;175.93;82.28;;;;;;;2.30;81.45;97629.41;5036537;28;20394;-84
2023/12/22 00:51:35;;;;;;;181.00;85.97;;;;;;;2.35;81.41;97628.78;5036534;28;20064;-80
2023/12/22 00:54:21;;;;;;;197.77;97.60;;;;;;;2.26;83.04;97633.47;5037124;28;20049;-84
2023/12/22 00:57:06;;;;;;;207.00;101.30;;;;;;;2.28;82.66;97631.41;5037140;28;20049;-84
2023/12/22 00:59:52;;;;;;;203.80;97.43;;;;;;;2.21;82.33;97616.78;5036251;28;20045;-80
2023/12/22 01:02:37;;;;;;;280.60;143.57;;;;;;;2.11;83.52;97598.94;5021019;28;20056;-80
2023/12/22 01:05:26;;;;;;;214.45;103.18;;;;;;;2.10;83.44;97599.97;5035117;28;20057;-81
2023/12/22 01:08:12;;;;;;;177.80;79.00;;;;;;;2.12;82.47;97597.91;5036305;28;20475;-83
2023/12/22 01:10:57;;;;;;;165.02;78.85;;;;;;;2.09;82.55;97591.25;5036081;28;20041;-84
2023/12/22 01:13:43;;;;;;;167.40;76.07;;;;;;;2.08;81.73;97584.44;5027953;28;20053;-84
2023/12/22 01:16:29;;;;;;;198.38;91.30;;;;;;;2.04;82.82;97582.47;5036058;28;20038;-79
2023/12/22 01:19:15;;;;;;;187.63;89.55;;;;;;;2.06;82.49;97578.59;5036042;28;20060;-80
2023/12/22 01:22:00;;;;;;;200.10;92.60;;;;;;;2.05;83.15;97573.59;5035544;28;20072;-84
2023/12/22 01:24:46;;;;;;;191.98;89.40;;;;;;;2.00;83.83;97566.34;5035830;28;20479;-84
2023/12/22 01:27:32;;;;;;;201.00;87.45;;;;;;;2.00;82.73;97555.88;5020960;28;20399;-81
2023/12/22 01:30:17;;;;;;;193.02;93.68;;;;;;;2.00;82.83;97550.63;5006929;28;20041;-80
2023/12/22 01:33:04;;;;;;;203.50;92.78;;;;;;;1.99;83.29;97538.56;5035776;28;20045;-79
2023/12/22 01:35:50;;;;;;;187.23;86.30;;;;;;;1.97;83.72;97524.06;5035762;28;20044;-81
2023/12/22 01:38:35;;;;;;;180.32;81.90;;;;;;;1.97;83.07;97529.31;5035443;28;20042;-80
2023/12/22 01:41:20;;;;;;;146.82;68.85;;;;;;;1.95;83.38;97529.53;5035512;28;20072;-82
2023/12/22 01:44:07;;;;;;;155.30;72.25;;;;;;;1.97;83.40;97509.13;5035315;28;20052;-82
2023/12/22 01:46:53;;;;;;;132.25;60.45;;;;;;;1.98;82.28;97512.59;5035237;28;20080;-82
2023/12/22 01:49:39;;;;;;;147.80;69.65;;;;;;;1.96;82.49;97512.00;5035427;28;20497;-82
2023/12/22 01:52:25;;;;;;;142.40;66.07;;;;;;;1.97;83.01;97509.13;5056265;28;20059;-83
2023/12/22 01:55:12;;;;;;;140.32;62.65;;;;;;;1.93;83.45;97509.81;5051748;28;20044;-79
2023/12/22 01:57:57;;;;;;;138.57;65.38;;;;;;;1.92;82.79;97505.59;5040794;28;20052;-83
2023/12/22 02:00:42;;;;;;;148.98;68.68;;;;;;;1.92;83.19;97516.88;5020661;28;20053;-83
2023/12/22 02:03:29;;;;;;;156.23;74.80;;;;;;;1.91;83.04;97515.25;5035565;28;20056;-84
2023/12/22 02:06:16;;;;;;;149.75;74.65;;;;;;;1.90;83.99;97518.88;5007226;28;20052;-84
2023/12/22 02:09:04;;;;;;;151.77;69.03;;;;;;;1.96;83.46;97496.28;5035006;28;20487;-84
2023/12/22 02:11:49;;;;;;;161.18;81.88;;;;;;;1.93;83.43;97489.63;5035126;28;20045;-84
2023/12/22 02:14:34;;;;;;;163.35;74.53;;;;;;;2.00;83.31;97486.94;5035078;28;20045;-83
2023/12/22 02:17:29;;;;;;;160.82;72.40;;;;;;;1.98;83.77;97494.25;5034631;28;20057;-80
2023/12/22 02:20:15;;;;;;;165.23;74.45;;;;;;;1.90;83.62;97500.56;5034615;28;20041;-80
2023/12/22 02:23:00;;;;;;;164.80;72.20;;;;;;;1.93;83.65;97496.69;5034511;28;20052;-80
2023/12/22 02:25:45;;;;;;;152.02;66.38;;;;;;;1.92;84.11;97495.09;5035516;28;20053;-83
2023/12/22 02:28:32;;;;;;;133.98;56.72;;;;;;;1.92;82.76;97497.72;5038208;28;20052;-80
2023/12/22 02:31:25;;;;;;;134.02;57.20;;;;;;;1.96;83.15;97512.00;5035838;28;20037;-79
2023/12/22 02:34:15;;;;;;;135.63;55.67;;;;;;;1.98;82.80;97515.19;5020747;28;20056;-79
2023/12/22 02:37:03;;;;;;;136.32;58.05;;;;;;;2.00;82.75;97513.16;5021908;28;20056;-79
2023/12/22 02:39:49;;;;;;;135.32;61.40;;;;;;;2.01;83.11;97512.16;5021057;28;20045;-79
2023/12/22 02:42:34;;;;;;;148.40;65.10;;;;;;;2.02;82.47;97524.22;5036711;28;20040;-82
2023/12/22 02:45:20;;;;;;;155.07;67.97;;;;;;;2.03;83.57;97523.19;5037626;28;20108;-80
2023/12/22 02:48:05;;;;;;;140.73;63.55;;;;;;;2.05;83.53;97535.06;5034166;28;20403;-83
2023/12/22 02:50:51;;;;;;;143.02;63.10;;;;;;;2.08;83.56;97521.53;5034304;28;20052;-80
2023/12/22 02:53:36;;;;;;;150.63;67.35;;;;;;;2.08;83.33;97532.03;5033971;28;20044;-83
2023/12/22 02:56:22;;;;;;;151.15;69.85;;;;;;;2.12;83.75;97531.59;5034000;28;20060;-83
2023/12/22 02:59:09;;;;;;;153.75;69.68;;;;;;;2.14;83.38;97530.34;5033975;28;20033;-84
2023/12/22 03:01:55;;;;;;;164.07;74.50;;;;;;;2.19;83.05;97533.13;5033786;28;20046;-83
2023/12/22 03:04:40;;;;;;;171.27;67.35;;;;;;;2.23;82.59;97521.19;5033955;28;20045;-83
2023/12/22 03:07:25;;;;;;;145.63;57.00;;;;;;;2.26;83.44;97530.44;5034050;28;20056;-83
2023/12/22 03:10:11;;;;;;;112.10;45.95;;;;;;;2.26;83.39;97526.00;5033835;28;20041;-83
2023/12/22 03:12:56;;;;;;;100.45;44.00;;;;;;;2.26;83.65;97519.97;5034048;28;20399;-80
2023/12/22 03:15:42;;;;;;;81.68;37.58;;;;;;;2.24;84.00;97522.78;5033935;28;20042;-83
2023/12/22 03:18:27;;;;;;;85.03;39.38;;;;;;;2.26;84.13;97541.72;5018955;28;20068;-80
2023/12/22 03:21:18;;;;;;;81.25;39.10;;;;;;;2.28;83.88;97544.91;5019354;28;20095;-83
2023/12/22 03:24:04;;;;;;;80.82;39.85;;;;;;;2.30;85.07;97542.91;5019474;28;20099;-80
2023/12/22 03:26:50;;;;;;;84.05;38.75;;;;;;;2.31;83.90;97526.13;5033738;28;20590;-80
2023/12/22 03:29:35;;;;;;;71.47;35.00;;;;;;;2.33;85.38;97525.94;5033305;28;20382;-84
2023/12/22 03:32:21;;;;;;;142.75;45.03;;;;;;;2.38;85.60;97520.03;5033959;28;20501;-84
2023/12/22 03:35:06;;;;;;;373.33;91.25;;;;;;;2.42;84.53;97510.72;5018945;28;20037;-83
2023/12/22 03:37:52;;;;;;;102.07;35.88;;;;;;;2.45;84.22;97520.78;5033900;28;20053;-84
2023/12/22 03:40:38;;;;;;;277.95;96.05;;;;;;;2.45;84.41;97526.00;5034071;28;20048;-80
2023/12/22 03:43:24;;;;;;;68.63;32.08;;;;;;;2.47;85.07;97534.44;5033402;28;20046;-80
2023/12/22 03:46:09;;;;;;;54.75;29.08;;;;;;;2.49;84.77;97543.69;5033330;28;20057;-80
2023/12/22 03:48:55;;;;;;;58.10;30.63;;;;;;;2.51;85.25;97536.44;5033610;28;20045;-84
2023/12/22 03:51:41;;;;;;;53.15;26.55;;;;;;;2.50;86.10;97528.75;5033701;28;20044;-80
2023/12/22 03:54:27;;;;;;;53.70;26.33;;;;;;;2.49;86.38;97527.97;5033331;28;20045;-80
2023/12/22 03:57:12;;;;;;;55.70;25.20;;;;;;;2.51;86.32;97519.91;5033344;28;20072;-80
2023/12/22 03:59:57;;;;;;;51.95;25.60;;;;;;;2.57;86.80;97513.78;5033319;28;20048;-80
2023/12/22 04:02:44;;;;;;;49.47;25.92;;;;;;;2.69;86.92;97498.06;5033290;28;20053;-82
2023/12/22 04:05:29;;;;;;;52.45;25.92;;;;;;;2.77;87.35;97503.81;5033458;28;20052;-84
2023/12/22 04:08:14;;;;;;;64.00;33.40;;;;;;;2.89;86.93;97510.97;5033211;28;20065;-85
2023/12/22 04:11:00;;;;;;;42.75;24.20;;;;;;;3.12;86.52;97524.16;5033167;28;20072;-84
2023/12/22 04:13:46;;;;;;;43.22;23.17;;;;;;;3.40;87.19;97533.25;5040183;28;20049;-80
2023/12/22 04:16:32;;;;;;;49.00;25.13;;;;;;;3.57;87.58;97549.94;5040115;28;20078;-85
2023/12/22 04:19:17;;;;;;;55.40;25.17;;;;;;;3.63;87.07;97553.50;5033113;28;20068;-84
2023/12/22 04:22:03;;;;;;;52.97;25.77;;;;;;;3.83;87.34;97547.97;5033228;28;20056;-80
2023/12/22 04:24:49;;;;;;;6.93;5.32;;;;;;;4.96;88.66;97551.94;5033160;28;20395;-81
2023/12/22 04:27:35;;;;;;;5.55;3.90;;;;;;;5.57;87.83;97536.44;5033337;28;20055;-86
2023/12/22 04:30:20;;;;;;;4.53;2.63;;;;;;;6.32;85.85;97537.84;5024939;28;20056;-80
2023/12/22 04:33:05;;;;;;;8.35;5.03;;;;;;;6.13;85.53;97536.53;5032955;28;20061;-80
2023/12/22 04:35:51;;;;;;;16.25;8.88;;;;;;;5.78;86.13;97542.84;5025255;28;20064;-80
2023/12/22 04:38:37;;;;;;;5.88;3.45;;;;;;;6.23;86.14;97557.78;5017949;28;20045;-84
2023/12/22 04:41:23;;;;;;;5.18;3.65;;;;;;;6.17;86.86;97542.91;5034991;28;20056;-85
2023/12/22 04:44:09;;;;;;;4.85;3.55;;;;;;;6.27;86.70;97556.28;5036433;28;20391;-83
2023/12/22 04:46:54;;;;;;;11.00;4.35;;;;;;;6.25;87.21;97566.25;5039064;28;20057;-84
2023/12/22 04:49:40;;;;;;;9.48;5.78;;;;;;;6.16;87.34;97571.13;5042982;28;20392;-84
2023/12/22 04:52:26;;;;;;;9.40;5.22;;;;;;;6.29;86.66;97572.63;5035943;28;20057;-80
2023/12/22 04:55:12;;;;;;;9.13;6.05;;;;;;;6.21;86.71;97578.34;5036281;28;20045;-79
2023/12/22 04:57:59;;;;;;;9.85;6.05;;;;;;;6.36;85.59;97586.47;5036335;28;20495;-79
2023/12/22 05:00:44;;;;;;;17.33;7.93;;;;;;;6.23;87.17;97590.22;5036133;28;20051;-81
2023/12/22 05:03:30;;;;;;;16.13;8.40;;;;;;;6.16;86.80;97604.63;5035838;28;20048;-83
2023/12/22 05:06:15;;;;;;;17.08;9.90;;;;;;;6.19;87.06;97610.22;5021110;28;20060;-79
2023/12/22 05:09:00;;;;;;;16.23;9.70;;;;;;;5.97;87.30;97619.91;5036059;28;20072;-79
2023/12/22 05:11:46;;;;;;;21.00;13.25;;;;;;;5.86;88.16;97615.44;5035723;28;20068;-81
2023/12/22 05:14:31;;;;;;;20.75;11.27;;;;;;;5.82;88.54;97625.69;5036036;28;20044;-84
2023/12/22 05:17:17;;;;;;;19.83;12.55;;;;;;;5.74;89.46;97620.81;5035651;28;20078;-79
2023/12/22 05:20:03;;;;;;;26.80;16.20;;;;;;;5.67;89.84;97606.97;5035971;28;20052;-83
2023/12/22 05:22:48;;;;;;;25.90;13.43;;;;;;;5.62;89.88;97612.16;5035852;28;20072;-80
2023/12/22 05:25:35;;;;;;;24.55;14.23;;;;;;;5.57;90.49;97624.19;5021015;28;20072;-80
2023/12/22 05:28:20;;;;;;;45.40;22.98;;;;;;;5.58;91.03;97606.56;5035557;28;20091;-80
2023/12/22 05:31:07;;;;;;;42.42;24.00;;;;;;;5.63;90.76;97608.47;5042809;28;20068;-82
2023/12/22 05:33:52;;;;;;;18.73;10.40;;;;;;;5.68;91.13;97613.84;5027574;28;20501;-84
2023/12/22 05:36:38;;;;;;;56.05;21.23;;;;;;;5.87;90.96;97625.78;5020610;28;20052;-81
2023/12/22 05:39:25;;;;;;;39.00;17.10;;;;;;;5.89;90.71;97625.50;5027177;28;20056;-82
2023/12/22 05:42:11;;;;;;;18.70;10.55;;;;;;;5.97;90.45;97630.44;5035276;28;20509;-81
2023/12/22 05:44:58;;;;;;;13.00;7.70;;;;;;;6.07;90.04;97635.09;5034334;28;20053;-82
2023/12/22 05:47:43;;;;;;;11.80;7.63;;;;;;;6.08;90.14;97631.41;5020875;28;20061;-81
2023/12/22 05:50:29;;;;;;;12.70;8.20;;;;;;;6.09;90.47;97638.28;5035301;28;20395;-81
2023/12/22 05:53:15;;;;;;;9.88;6.07;;;;;;;6.39;89.39;97645.88;5035414;28;20048;-81
2023/12/22 05:56:00;;;;;;;9.50;6.70;;;;;;;6.45;88.57;97645.69;5035068;28;20056;-84
2023/12/22 05:58:46;;;;;;;12.80;7.28;;;;;;;6.61;88.73;97644.09;5035405;28;20052;-84
2023/12/22 06:01:31;;;;;;;15.50;7.88;;;;;;;6.70;88.15;97655.81;5019882;28;20044;-82
2023/12/22 06:04:17;;;;;;;29.10;16.27;;;;;;;6.73;88.09;97654.53;5034769;28;20072;-86
2023/12/22 06:07:03;;;;;;;11.32;4.97;;;;;;;6.75;87.63;97659.59;5020392;28;20041;-82
2023/12/22 06:09:49;;;;;;;11.20;6.47;;;;;;;6.82;87.25;97652.28;5020246;28;20391;-81
2023/12/22 06:12:34;;;;;;;15.75;9.95;;;;;;;6.83;86.55;97648.59;5019689;28;20056;-82
2023/12/22 06:15:19;;;;;;;15.60;10.10;;;;;;;6.74;87.16;97658.81;5019511;28;20395;-86
2023/12/22 06:18:05;;;;;;;15.63;8.93;;;;;;;6.64;88.15;97667.38;5036483;28;20054;-86
2023/12/22 06:20:50;;;;;;;10.40;6.55;;;;;;;6.56;88.56;97665.13;5042439;28;20510;-82
2023/12/22 06:23:36;;;;;;;129.13;57.88;;;;;;;6.49;88.60;97675.06;5034154;28;20060;-82
2023/12/22 06:26:21;;;;;;;271.33;138.80;;;;;;;6.40;89.26;97677.31;5026195;28;20490;-82
2023/12/22 06:29:07;;;;;;;113.60;59.17;;;;;;;6.34;89.38;97686.19;5026122;28;20050;-81
2023/12/22 06:31:52;;;;;;;78.82;42.92;;;;;;;6.32;90.09;97688.25;5034935;28;20049;-81
2023/12/22 06:34:37;;;;;;;20.83;13.30;;;;;;;6.29;90.25;97686.09;5040997;28;20056;-83
2023/12/22 06:37:23;;;;;;;49.30;30.63;;;;;;;6.23;90.39;97676.50;5019841;28;20105;-82
2023/12/22 06:40:09;;;;;;;17.48;11.27;;;;;;;6.23;90.44;97674.66;5034392;28;20387;-82
2023/12/22 06:42:54;;;;;;;25.75;15.35;;;;;;;6.31;90.23;97693.78;5034284;28;20387;-82
2023/12/22 06:45:40;;;;;;;30.23;17.15;;;;;;;6.28;90.32;97705.59;5033984;28;20049;-85
2023/12/22 06:48:26;;;;;;;37.60;20.73;;;;;;;6.21;91.11;97718.94;5041419;28;20056;-85
2023/12/22 06:51:20;;;;;;;41.58;24.98;;;;;;;6.23;90.96;97718.69;5035240;28;20044;-83
2023/12/22 06:54:06;;;;;;;38.58;25.08;;;;;;;6.26;91.22;97720.84;5034801;28;20109;-85
2023/12/22 06:56:51;;;;;;;38.78;23.77;;;;;;;6.22;90.84;97725.81;5020231;28;20099;-84
2023/12/22 06:59:37;;;;;;;47.70;29.42;;;;;;;6.21;91.43;97729.50;5040566;28;20399;-82
2023/12/22 07:02:22;;;;;;;53.38;30.80;;;;;;;6.21;91.07;97729.50;5034018;28;20048;-81
2023/12/22 07:05:23;;;;;;;62.95;35.38;;;;;;;6.22;91.00;97725.81;5034220;28;20048;-81
2023/12/22 07:08:08;;;;;;;57.83;30.08;;;;;;;6.25;90.92;97735.09;5034275;28;20064;-84
2023/12/22 07:10:54;;;;;;;49.15;26.52;;;;;;;6.32;91.19;97748.94;5033212;28;20060;-83
2023/12/22 07:13:39;;;;;;;31.10;18.90;;;;;;;6.38;91.08;97752.47;5034634;28;20044;-84
2023/12/22 07:16:25;;;;;;;27.30;16.05;;;;;;;6.45;90.59;97761.00;5034751;28;20407;-84
2023/12/22 07:19:14;;;;;;;20.77;12.65;;;;;;;6.45;90.38;97776.84;5034634;28;20105;-85
2023/12/22 07:21:59;;;;;;;23.13;15.57;;;;;;;6.35;90.55;97795.94;5019650;28;20056;-84
2023/12/22 07:24:46;;;;;;;17.17;12.15;;;;;;;6.22;90.73;97806.81;5036622;28;20048;-82
2023/12/22 07:27:31;;;;;;;18.33;12.02;;;;;;;6.20;90.59;97808.84;5033196;28;20052;-82
2023/12/22 07:30:17;;;;;;;34.97;20.67;;;;;;;6.23;91.14;97821.59;5041664;28;20096;-81
2023/12/22 07:33:03;;;;;;;46.22;22.60;;;;;;;6.28;91.24;97816.41;5036582;28;20044;-81
2023/12/22 07:35:48;;;;;;;43.65;19.45;;;;;;;6.26;90.55;97815.84;5034156;28;20056;-83
2023/12/22 07:38:34;;;;;;;38.88;23.23;;;;;;;6.31;90.56;97818.56;5033803;28;20052;-82
2023/12/22 07:41:19;;;;;;;42.17;22.58;;;;;;;6.54;88.91;97835.34;5034249;28;20053;-85
2023/12/22 07:44:05;;;;;;;39.03;19.42;;;;;;;6.47;89.19;97832.84;5035631;28;20052;-85
2023/12/22 07:47:00;;;;;;;29.17;18.52;;;;;;;6.46;88.70;97831.25;5034648;28;20056;-82
2023/12/22 07:49:45;;;;;;;24.77;13.85;;;;;;;6.41;89.00;97824.03;5018931;28;20052;-82
2023/12/22 07:52:30;;;;;;;23.25;15.73;;;;;;;6.32;89.23;97828.09;5033438;28;20045;-82
2023/12/22 07:55:16;;;;;;;24.75;16.30;;;;;;;6.24;90.01;97826.63;5033346;28;20048;-85
2023/12/22 07:58:02;;;;;;;83.78;43.22;;;;;;;6.18;90.67;97832.06;5034156;28;20064;-85
2023/12/22 08:00:48;;;;;;;143.32;72.60;;;;;;;6.11;91.06;97831.38;5019721;28;20393;-74
2023/12/22 08:03:34;;;;;;;117.45;53.88;;;;;;;6.06;91.13;97832.09;5039202;28;20053;-74
2023/12/22 08:06:19;;;;;;;59.60;35.28;;;;;;;6.02;91.56;97841.50;5033198;28;20057;-76
2023/12/22 08:09:05;;;;;;;85.88;44.92;;;;;;;6.01;92.23;97847.81;5033797;28;20384;-77
2023/12/22 08:11:52;;;;;;;71.10;34.72;;;;;;;6.00;92.54;97856.75;5032585;28;20072;-76
2023/12/22 08:14:37;;;;;;;71.57;37.83;;;;;;;5.97;92.21;97858.03;5034778;28;20045;-77
2023/12/22 08:17:23;;;;;;;65.53;34.83;;;;;;;6.01;92.61;97855.72;5037141;28;20391;-77
2023/12/22 08:20:10;;;;;;;59.15;33.08;;;;;;;6.00;92.33;97857.56;5037108;28;20510;-75
2023/12/22 08:22:55;;;;;;;123.93;69.55;;;;;;;6.01;93.20;97855.72;5036871;28;20052;-83
2023/12/22 08:25:41;;;;;;;58.83;35.97;;;;;;;6.00;92.81;97854.91;5038385;28;20041;-82
2023/12/22 08:28:26;;;;;;;46.63;30.05;;;;;;;6.03;92.55;97859.72;5038717;28;20052;-79
2023/12/22 08:31:12;;;;;;;38.65;22.17;;;;;;;6.08;92.39;97852.94;5039014;28;20040;-82
2023/12/22 08:33:57;;;;;;;43.67;24.92;;;;;;;6.16;92.63;97863.94;5037875;28;20052;-84
2023/12/22 08:36:43;;;;;;;78.38;37.65;;;;;;;6.23;91.76;97861.94;5040595;28;20407;-84
2023/12/22 08:39:29;;;;;;;107.07;52.40;;;;;;;6.26;91.32;97861.47;5025822;28;20048;-83
2023/12/22 08:42:14;;;;;;;45.70;26.35;;;;;;;6.29;91.56;97862.84;5041019;28;20049;-83
2023/12/22 08:45:00;;;;;;;70.63;42.35;;;;;;;6.30;90.69;97875.03;5041063;28;20064;-79
2023/12/22 08:47:45;;;;;;;22.38;15.45;;;;;;;6.32;90.67;97885.34;5040477;28;20056;-83
2023/12/22 08:50:31;;;;;;;40.03;25.33;;;;;;;6.36;90.22;97891.75;5041299;28;20056;-80
2023/12/22 08:53:16;;;;;;;24.67;15.13;;;;;;;6.37;90.43;97886.25;5040005;28;20053;-80
2023/12/22 08:56:03;;;;;;;15.23;10.10;;;;;;;6.38;89.58;97879.91;5036554;28;20060;-79
2023/12/22 08:58:51;;;;;;;15.93;9.18;;;;;;;6.37;89.37;97883.59;5036319;28;20113;-82
2023/12/22 09:01:36;;;;;;;16.40;9.30;;;;;;;6.36;89.43;97883.81;5037536;28;20399;-80
2023/12/22 09:04:22;;;;;;;18.75;11.30;;;;;;;6.34;89.28;97894.63;5036034;28;20049;-78
2023/12/22 09:07:10;;;;;;;13.90;9.27;;;;;;;6.35;88.48;97888.31;5036223;28;20140;-79
2023/12/22 09:09:56;;;;;;;15.65;9.57;;;;;;;6.35;88.21;97885.66;5035817;28;20056;-79
2023/12/22 09:12:42;;;;;;;22.80;13.70;;;;;;;6.36;87.95;97868.00;5036164;28;20052;-79
2023/12/22 09:15:27;;;;;;;13.80;9.05;;;;;;;6.40;87.23;97835.63;5038116;28;20048;-79
2023/12/22 09:18:13;;;;;;;32.97;19.25;;;;;;;6.47;86.68;97814.38;5037026;28;20399;-79
2023/12/22 09:20:59;;;;;;;27.38;17.50;;;;;;;6.59;86.20;97809.84;5036723;28;20068;-79
2023/12/22 09:23:46;;;;;;;20.13;12.20;;;;;;;6.72;85.32;97812.16;5035741;28;20052;-83
2023/12/22 09:26:33;;;;;;;20.20;10.93;;;;;;;6.94;84.35;97809.59;5034689;28;20057;-79
2023/12/22 09:29:22;;;;;;;13.57;8.20;;;;;;;7.14;81.98;97822.31;5020919;28;20048;-79
2023/12/22 09:32:08;;;;;;;25.80;13.10;;;;;;;7.30;80.58;97833.94;5042162;28;20056;-86
2023/12/22 09:34:58;;;;;;;36.17;15.27;;;;;;;7.40;80.18;97841.22;5034779;28;20395;-83
2023/12/22 09:37:44;;;;;;;43.13;18.05;;;;;;;7.48;80.17;97855.84;5035889;28;20053;-81
2023/12/22 09:40:30;;;;;;;23.70;13.38;;;;;;;7.51;80.73;97850.88;5042582;28;20068;-85
2023/12/22 09:43:15;;;;;;;16.95;10.20;;;;;;;7.56;80.99;97842.22;5019588;28;20243;-84
2023/12/22 09:46:01;;;;;;;17.50;8.68;;;;;;;7.50;81.22;97838.72;5041831;28;20106;-79
2023/12/22 09:48:47;;;;;;;28.85;12.68;;;;;;;7.53;80.91;97837.41;5031846;28;20056;-82
2023/12/22 09:51:33;;;;;;;23.52;11.40;;;;;;;7.52;80.52;97838.44;5024045;28;20116;-82
2023/12/22 09:54:19;;;;;;;35.10;19.70;;;;;;;7.54;81.63;97844.31;5042915;28;20044;-80
2023/12/22 09:57:07;;;;;;;26.60;15.32;;;;;;;7.42;80.70;97836.47;5055652;28;20036;-80
2023/12/22 09:59:54;;;;;;;25.42;13.70;;;;;;;7.38;80.83;97835.34;5036217;28;20056;-81
2023/12/22 10:02:40;;;;;;;18.83;11.05;;;;;;;7.26;81.21;97838.09;5057971;28;20051;-81
2023/12/22 10:05:27;;;;;;;24.80;13.75;;;;;;;7.23;81.87;97849.13;5053348;28;20044;-81
2023/12/22 10:08:14;;;;;;;22.00;11.85;;;;;;;7.23;81.01;97858.91;5051444;28;20043;-82
2023/12/22 10:11:00;;;;;;;30.30;16.65;;;;;;;7.25;80.43;97862.13;5035822;28;20403;-82
2023/12/22 10:13:45;;;;;;;32.75;18.95;;;;;;;7.26;80.36;97861.88;5035468;28;20048;-81
2023/12/22 10:16:32;;;;;;;19.65;10.43;;;;;;;7.28;79.56;97869.56;5041322;28;20056;-80
2023/12/22 10:19:21;;;;;;;27.63;15.02;;;;;;;7.39;79.55;97873.94;5031830;28;20056;-82
2023/12/22 10:22:06;;;;;;;15.45;9.75;;;;;;;7.36;79.66;97879.72;5041286;28;20048;-82
2023/12/22 10:24:53;;;;;;;11.98;7.38;;;;;;;7.38;78.99;97888.22;5035336;28;20060;-83
2023/12/22 10:27:42;;;;;;;12.73;7.45;;;;;;;7.34;78.62;97871.25;5039450;28;20052;-83
2023/12/22 10:30:29;;;;;;;17.10;11.15;;;;;;;7.33;79.27;97870.44;5041555;28;20052;-82
2023/12/22 10:33:15;;;;;;;21.25;14.13;;;;;;;7.35;79.52;97863.06;5031059;28;20049;-81
2023/12/22 10:36:02;;;;;;;20.60;12.27;;;;;;;7.36;80.36;97848.81;5052160;28;20072;-81
2023/12/22 10:38:47;;;;;;;27.75;17.40;;;;;;;7.41;80.58;97827.75;5026161;28;20402;-83
2023/12/22 10:41:33;;;;;;;46.78;25.55;;;;;;;7.46;80.52;97815.63;5029866;28;20056;-81
2023/12/22 10:44:19;;;;;;;102.80;41.63;;;;;;;7.38;79.95;97814.22;5050001;28;20052;-82
2023/12/22 10:47:05;;;;;;;49.22;22.27;;;;;;;7.31;80.01;97803.03;5033750;28;20053;-82
2023/12/22 10:49:51;;;;;;;51.53;25.80;;;;;;;7.38;79.00;97796.50;5026106;28;20048;-81
2023/12/22 10:52:37;;;;;;;51.95;26.80;;;;;;;7.49;78.54;97794.81;5047190;28;20056;-81
2023/12/22 10:55:24;;;;;;;31.83;17.00;;;;;;;7.63;77.66;97790.75;5045532;28;20052;-81
2023/12/22 10:58:09;;;;;;;28.77;13.93;;;;;;;7.76;76.25;97800.16;5038664;28;20387;-83
2023/12/22 11:00:56;;;;;;;18.48;11.18;;;;;;;7.90;75.09;97808.56;5034137;28;20159;-82
2023/12/22 11:03:45;;;;;;;22.30;11.48;;;;;;;7.97;75.07;97805.72;5034063;28;20052;-83
2023/12/22 11:06:34;;;;;;;26.90;14.45;;;;;;;8.03;74.80;97791.50;5040698;28;20509;-80
2023/12/22 11:09:23;;;;;;;22.60;10.57;;;;;;;8.00;73.59;97787.50;5035017;28;20068;-80
2023/12/22 11:12:08;;;;;;;19.50;12.65;;;;;;;8.01;73.63;97785.66;5026336;28;20117;-80
2023/12/22 11:14:56;;;;;;;12.75;7.55;;;;;;;7.88;72.46;97776.25;5039280;28;20052;-84
2023/12/22 11:17:42;;;;;;;13.15;7.60;;;;;;;7.86;73.06;97775.69;5019172;28;20391;-80
2023/12/22 11:20:32;;;;;;;21.10;11.25;;;;;;;7.82;72.90;97775.38;5019171;28;20060;-84
2023/12/22 11:23:19;;;;;;;18.27;10.00;;;;;;;7.76;72.33;97776.38;5032680;28;20057;-80
2023/12/22 11:26:05;;;;;;;20.05;10.82;;;;;;;7.67;72.73;97791.06;5011491;28;20056;-80
2023/12/22 11:28:53;;;;;;;16.98;9.55;;;;;;;7.61;72.55;97795.47;5033747;28;20052;-80
2023/12/22 11:31:40;;;;;;;22.63;10.88;;;;;;;7.69;71.46;97812.78;5034221;28;20109;-81
2023/12/22 11:34:26;;;;;;;17.08;9.48;;;;;;;7.68;71.61;97815.66;5018994;28;20044;-80
2023/12/22 11:37:13;;;;;;;13.88;8.25;;;;;;;7.61;71.32;97813.19;5019345;28;20064;-80
2023/12/22 11:39:58;;;;;;;14.30;8.65;;;;;;;7.56;72.59;97790.16;5034641;28;20048;-80
2023/12/22 11:42:49;;;;;;;16.90;11.32;;;;;;;7.52;72.04;97789.03;5043730;28;20522;-79
2023/12/22 11:45:35;;;;;;;18.67;10.23;;;;;;;7.49;72.06;97791.34;5039020;28;20052;-80
2023/12/22 11:48:22;;;;;;;25.63;15.05;;;;;;;7.48;72.46;97802.97;5035057;28;20068;-81
2023/12/22 11:51:16;;;;;;;9.85;5.68;;;;;;;7.54;71.42;97828.44;5017724;28;20049;-80
2023/12/22 11:54:03;;;;;;;22.55;10.68;;;;;;;7.79;68.76;97842.00;5018229;28;20061;-81
2023/12/22 11:56:49;;;;;;;8.00;4.50;;;;;;;7.72;70.49;97851.16;5018232;28;20045;-81
2023/12/22 11:59:38;;;;;;;14.85;7.30;;;;;;;7.68;71.33;97850.03;5017284;28;20052;-80
2023/12/22 12:02:28;;;;;;;9.02;5.05;;;;;;;7.69;70.87;97863.03;5009286;28;20052;-79
2023/12/22 12:05:38;;;;;;;12.30;6.85;;;;;;;7.61;71.67;97858.13;5002724;28;20049;-79
2023/12/22 12:08:29;;;;;;;16.02;9.48;;;;;;;7.60;71.32;97859.19;5024104;28;20057;-83
2023/12/22 12:11:16;;;;;;;42.33;19.15;;;;;;;7.63;70.90;97864.00;5017362;28;20218;-80
2023/12/22 12:14:11;;;;;;;16.73;7.97;;;;;;;7.63;71.11;97869.28;5002942;28;20384;-80
2023/12/22 12:17:09;;;;;;;14.95;7.38;;;;;;;7.64;70.64;97865.59;5023851;28;20052;-80
2023/12/22 12:19:56;;;;;;;18.58;9.73;;;;;;;7.72;69.47;97864.38;5018454;28;20049;-79
2023/12/22 12:22:43;;;;;;;28.08;15.00;;;;;;;7.69;71.65;97863.03;5017859;28;20057;-79
2023/12/22 12:25:29;;;;;;;34.35;20.30;;;;;;;7.66;70.69;97860.88;5017350;28;20061;-81
2023/12/22 12:28:18;;;;;;;49.15;23.33;;;;;;;7.63;69.30;97835.69;5016965;28;20057;-81
2023/12/22 12:31:05;;;;;;;561.83;359.15;;;;;;;7.63;69.78;97813.75;5023844;28;20049;-85
2023/12/22 12:33:53;;;;;;;40.28;21.35;;;;;;;7.60;68.58;97811.59;5017268;28;20041;-80
2023/12/22 12:36:39;;;;;;;79.97;37.17;;;;;;;7.67;68.95;97819.34;5023236;28;20048;-80
2023/12/22 12:39:31;;;;;;;36.97;21.40;;;;;;;7.76;67.78;97817.88;5017124;28;20048;-84
2023/12/22 12:42:17;;;;;;;16.10;10.50;;;;;;;7.80;67.00;97825.09;5023360;28;20061;-80
2023/12/22 12:45:07;;;;;;;21.25;12.02;;;;;;;7.78;66.58;97850.19;5016557;28;20048;-81
2023/12/22 12:48:01;;;;;;;26.58;15.63;;;;;;;7.80;66.12;97843.63;5034757;28;20061;-78
2023/12/22 12:50:48;;;;;;;30.98;12.98;;;;;;;7.80;67.22;97837.50;5028633;28;20064;-85
2023/12/22 12:53:33;;;;;;;20.73;9.93;;;;;;;7.79;66.53;97844.63;5036616;28;20041;-83